sensor_id;sensor_type;location;lat;lon;timestamp;P1;durP1;ratioP1;P2;durP2;ratioP2
37455;SDS011;23316;50.718;7.328;2023-04-10T00:00:35;14.63;;;9.13;;
37455;SDS011;23316;50.718;7.328;2023-04-10T00:03:03;12.63;;;9.35;;
37455;SDS011;23316;50.718;7.328;2023-04-10T00:05:31;16.23;;;9.82;;
37455;SDS011;23316;50.718;7.328;2023-04-10T00:07:58;14.00;;;8.82;;
37455;SDS011;23316;50.718;7.328;2023-04-10T00:10:25;15.65;;;9.77;;
37455;SDS011;23316;50.718;7.328;2023-04-10T00:12:56;13.63;;;8.93;;
37455;SDS011;23316;50.718;7.328;2023-04-10T00:15:25;16.20;;;9.63;;
37455;SDS011;23316;50.718;7.328;2023-04-10T00:17:54;14.77;;;9.20;;
37455;SDS011;23316;50.718;7.328;2023-04-10T00:20:21;16.33;;;10.18;;
37455;SDS011;23316;50.718;7.328;2023-04-10T00:22:50;18.48;;;10.77;;
37455;SDS011;23316;50.718;7.328;2023-04-10T00:25:18;12.75;;;8.70;;
37455;SDS011;23316;50.718;7.328;2023-04-10T00:27:47;13.57;;;9.10;;
37455;SDS011;23316;50.718;7.328;2023-04-10T00:30:14;12.15;;;8.50;;
37455;SDS011;23316;50.718;7.328;2023-04-10T00:32:41;12.48;;;8.65;;
37455;SDS011;23316;50.718;7.328;2023-04-10T00:35:10;13.23;;;8.85;;
37455;SDS011;23316;50.718;7.328;2023-04-10T00:37:37;12.45;;;8.43;;
37455;SDS011;23316;50.718;7.328;2023-04-10T00:40:05;15.50;;;8.93;;
37455;SDS011;23316;50.718;7.328;2023-04-10T00:42:34;14.60;;;8.50;;
37455;SDS011;23316;50.718;7.328;2023-04-10T00:45:01;13.80;;;8.45;;
37455;SDS011;23316;50.718;7.328;2023-04-10T00:47:29;14.05;;;9.07;;
37455;SDS011;23316;50.718;7.328;2023-04-10T00:49:56;11.52;;;8.60;;
37455;SDS011;23316;50.718;7.328;2023-04-10T00:52:26;14.10;;;9.18;;
37455;SDS011;23316;50.718;7.328;2023-04-10T00:54:53;15.65;;;9.70;;
37455;SDS011;23316;50.718;7.328;2023-04-10T00:57:21;14.43;;;8.93;;
37455;SDS011;23316;50.718;7.328;2023-04-10T00:59:48;13.50;;;8.68;;
37455;SDS011;23316;50.718;7.328;2023-04-10T01:02:16;12.63;;;8.70;;
37455;SDS011;23316;50.718;7.328;2023-04-10T01:04:44;13.90;;;8.55;;
37455;SDS011;23316;50.718;7.328;2023-04-10T01:07:14;13.45;;;8.85;;
37455;SDS011;23316;50.718;7.328;2023-04-10T01:09:53;16.33;;;10.00;;
37455;SDS011;23316;50.718;7.328;2023-04-10T01:12:34;15.00;;;10.05;;
37455;SDS011;23316;50.718;7.328;2023-04-10T01:15:10;14.52;;;9.60;;
37455;SDS011;23316;50.718;7.328;2023-04-10T01:17:42;14.80;;;9.63;;
37455;SDS011;23316;50.718;7.328;2023-04-10T01:20:18;14.82;;;9.48;;
37455;SDS011;23316;50.718;7.328;2023-04-10T01:22:55;15.55;;;9.82;;
37455;SDS011;23316;50.718;7.328;2023-04-10T01:29:02;16.15;;;9.52;;
37455;SDS011;23316;50.718;7.328;2023-04-10T01:31:33;14.52;;;9.43;;
37455;SDS011;23316;50.718;7.328;2023-04-10T01:34:06;15.63;;;9.35;;
37455;SDS011;23316;50.718;7.328;2023-04-10T01:36:37;16.65;;;10.05;;
37455;SDS011;23316;50.718;7.328;2023-04-10T01:39:18;14.52;;;8.43;;
37455;SDS011;23316;50.718;7.328;2023-04-10T01:41:47;14.25;;;9.32;;
37455;SDS011;23316;50.718;7.328;2023-04-10T01:44:20;12.43;;;8.55;;
37455;SDS011;23316;50.718;7.328;2023-04-10T01:46:51;12.43;;;8.30;;
37455;SDS011;23316;50.718;7.328;2023-04-10T01:49:21;11.95;;;8.45;;
37455;SDS011;23316;50.718;7.328;2023-04-10T01:51:50;12.30;;;8.40;;
37455;SDS011;23316;50.718;7.328;2023-04-10T01:54:23;12.50;;;8.50;;
37455;SDS011;23316;50.718;7.328;2023-04-10T01:56:53;14.10;;;8.75;;
37455;SDS011;23316;50.718;7.328;2023-04-10T01:59:27;14.77;;;9.95;;
37455;SDS011;23316;50.718;7.328;2023-04-10T02:01:55;16.95;;;9.95;;
37455;SDS011;23316;50.718;7.328;2023-04-10T02:04:24;17.17;;;10.00;;
37455;SDS011;23316;50.718;7.328;2023-04-10T02:06:56;14.10;;;9.45;;
37455;SDS011;23316;50.718;7.328;2023-04-10T02:09:31;13.90;;;9.85;;
37455;SDS011;23316;50.718;7.328;2023-04-10T02:12:08;14.93;;;10.10;;
37455;SDS011;23316;50.718;7.328;2023-04-10T02:14:42;17.02;;;10.27;;
37455;SDS011;23316;50.718;7.328;2023-04-10T02:17:12;12.70;;;9.02;;
37455;SDS011;23316;50.718;7.328;2023-04-10T02:19:43;17.30;;;10.23;;
37455;SDS011;23316;50.718;7.328;2023-04-10T02:22:12;15.13;;;9.95;;
37455;SDS011;23316;50.718;7.328;2023-04-10T02:24:41;13.63;;;9.32;;
37455;SDS011;23316;50.718;7.328;2023-04-10T02:27:09;15.85;;;10.25;;
37455;SDS011;23316;50.718;7.328;2023-04-10T02:29:36;13.00;;;8.52;;
37455;SDS011;23316;50.718;7.328;2023-04-10T02:32:05;14.43;;;9.82;;
37455;SDS011;23316;50.718;7.328;2023-04-10T02:34:33;15.05;;;9.95;;
37455;SDS011;23316;50.718;7.328;2023-04-10T02:37:00;14.70;;;9.13;;
37455;SDS011;23316;50.718;7.328;2023-04-10T02:39:28;16.05;;;9.93;;
37455;SDS011;23316;50.718;7.328;2023-04-10T02:41:56;15.30;;;9.65;;
37455;SDS011;23316;50.718;7.328;2023-04-10T02:44:24;13.40;;;8.93;;
37455;SDS011;23316;50.718;7.328;2023-04-10T02:46:51;14.07;;;9.02;;
37455;SDS011;23316;50.718;7.328;2023-04-10T02:49:21;15.13;;;9.48;;
37455;SDS011;23316;50.718;7.328;2023-04-10T02:51:58;12.68;;;8.70;;
37455;SDS011;23316;50.718;7.328;2023-04-10T02:54:31;13.10;;;8.50;;
37455;SDS011;23316;50.718;7.328;2023-04-10T02:56:59;12.55;;;8.50;;
37455;SDS011;23316;50.718;7.328;2023-04-10T02:59:27;14.60;;;9.38;;
37455;SDS011;23316;50.718;7.328;2023-04-10T03:01:54;12.40;;;8.55;;
37455;SDS011;23316;50.718;7.328;2023-04-10T03:04:31;13.50;;;8.85;;
37455;SDS011;23316;50.718;7.328;2023-04-10T03:07:02;13.30;;;8.82;;
37455;SDS011;23316;50.718;7.328;2023-04-10T03:09:31;11.80;;;7.95;;
37455;SDS011;23316;50.718;7.328;2023-04-10T03:11:59;15.18;;;9.05;;
37455;SDS011;23316;50.718;7.328;2023-04-10T03:14:26;12.93;;;8.98;;
37455;SDS011;23316;50.718;7.328;2023-04-10T03:16:55;16.40;;;9.30;;
37455;SDS011;23316;50.718;7.328;2023-04-10T03:19:22;14.65;;;9.23;;
37455;SDS011;23316;50.718;7.328;2023-04-10T03:21:52;14.20;;;9.18;;
37455;SDS011;23316;50.718;7.328;2023-04-10T03:24:20;12.93;;;8.32;;
37455;SDS011;23316;50.718;7.328;2023-04-10T03:26:50;12.73;;;8.85;;
37455;SDS011;23316;50.718;7.328;2023-04-10T03:29:17;13.05;;;8.55;;
37455;SDS011;23316;50.718;7.328;2023-04-10T03:31:48;13.38;;;8.45;;
37455;SDS011;23316;50.718;7.328;2023-04-10T03:34:15;12.38;;;8.20;;
37455;SDS011;23316;50.718;7.328;2023-04-10T03:36:42;12.55;;;7.78;;
37455;SDS011;23316;50.718;7.328;2023-04-10T03:39:15;11.95;;;7.93;;
37455;SDS011;23316;50.718;7.328;2023-04-10T03:41:46;13.55;;;8.77;;
37455;SDS011;23316;50.718;7.328;2023-04-10T03:44:19;12.18;;;7.55;;
37455;SDS011;23316;50.718;7.328;2023-04-10T03:46:49;11.40;;;7.97;;
37455;SDS011;23316;50.718;7.328;2023-04-10T03:49:16;14.95;;;8.32;;
37455;SDS011;23316;50.718;7.328;2023-04-10T03:51:44;13.45;;;8.70;;
37455;SDS011;23316;50.718;7.328;2023-04-10T03:54:13;12.18;;;8.32;;
37455;SDS011;23316;50.718;7.328;2023-04-10T03:56:43;13.75;;;8.05;;
37455;SDS011;23316;50.718;7.328;2023-04-10T03:59:10;11.75;;;7.93;;
37455;SDS011;23316;50.718;7.328;2023-04-10T04:01:38;12.02;;;7.90;;
37455;SDS011;23316;50.718;7.328;2023-04-10T04:04:05;15.52;;;9.00;;
37455;SDS011;23316;50.718;7.328;2023-04-10T04:06:33;14.18;;;9.05;;
37455;SDS011;23316;50.718;7.328;2023-04-10T04:09:01;12.57;;;8.90;;
37455;SDS011;23316;50.718;7.328;2023-04-10T04:11:30;12.70;;;9.02;;
37455;SDS011;23316;50.718;7.328;2023-04-10T04:13:59;14.38;;;9.73;;
37455;SDS011;23316;50.718;7.328;2023-04-10T04:16:32;14.38;;;8.40;;
37455;SDS011;23316;50.718;7.328;2023-04-10T04:19:01;12.52;;;8.52;;
37455;SDS011;23316;50.718;7.328;2023-04-10T04:21:28;14.55;;;8.40;;
37455;SDS011;23316;50.718;7.328;2023-04-10T04:23:58;14.32;;;8.15;;
37455;SDS011;23316;50.718;7.328;2023-04-10T04:26:25;12.60;;;8.23;;
37455;SDS011;23316;50.718;7.328;2023-04-10T04:28:54;14.23;;;8.90;;
37455;SDS011;23316;50.718;7.328;2023-04-10T04:31:21;13.30;;;8.40;;
37455;SDS011;23316;50.718;7.328;2023-04-10T04:33:56;16.38;;;9.70;;
37455;SDS011;23316;50.718;7.328;2023-04-10T04:36:24;12.80;;;8.25;;
37455;SDS011;23316;50.718;7.328;2023-04-10T04:39:00;14.10;;;8.73;;
37455;SDS011;23316;50.718;7.328;2023-04-10T04:41:32;12.75;;;8.00;;
37455;SDS011;23316;50.718;7.328;2023-04-10T04:44:01;46.78;;;22.67;;
37455;SDS011;23316;50.718;7.328;2023-04-10T04:46:29;25.45;;;14.75;;
37455;SDS011;23316;50.718;7.328;2023-04-10T04:49:04;18.20;;;11.02;;
37455;SDS011;23316;50.718;7.328;2023-04-10T04:51:32;14.15;;;9.32;;
37455;SDS011;23316;50.718;7.328;2023-04-10T04:54:00;13.10;;;8.63;;
37455;SDS011;23316;50.718;7.328;2023-04-10T04:56:27;13.60;;;8.63;;
37455;SDS011;23316;50.718;7.328;2023-04-10T04:58:55;10.88;;;7.63;;
37455;SDS011;23316;50.718;7.328;2023-04-10T05:04:07;27.95;;;14.18;;
37455;SDS011;23316;50.718;7.328;2023-04-10T05:06:35;18.60;;;10.13;;
37455;SDS011;23316;50.718;7.328;2023-04-10T05:09:06;15.43;;;9.85;;
37455;SDS011;23316;50.718;7.328;2023-04-10T05:11:33;14.25;;;9.55;;
37455;SDS011;23316;50.718;7.328;2023-04-10T05:14:01;13.40;;;8.02;;
37455;SDS011;23316;50.718;7.328;2023-04-10T05:16:28;13.23;;;7.90;;
37455;SDS011;23316;50.718;7.328;2023-04-10T05:18:57;13.88;;;8.57;;
37455;SDS011;23316;50.718;7.328;2023-04-10T05:21:24;14.65;;;9.25;;
37455;SDS011;23316;50.718;7.328;2023-04-10T05:23:52;13.48;;;8.93;;
37455;SDS011;23316;50.718;7.328;2023-04-10T05:26:21;12.90;;;8.52;;
37455;SDS011;23316;50.718;7.328;2023-04-10T05:28:48;24.77;;;12.80;;
37455;SDS011;23316;50.718;7.328;2023-04-10T05:31:16;89.72;;;34.90;;
37455;SDS011;23316;50.718;7.328;2023-04-10T05:33:43;31.67;;;15.68;;
37455;SDS011;23316;50.718;7.328;2023-04-10T05:36:13;18.85;;;10.68;;
37455;SDS011;23316;50.718;7.328;2023-04-10T05:38:42;17.00;;;9.65;;
37455;SDS011;23316;50.718;7.328;2023-04-10T05:41:10;12.88;;;8.40;;
37455;SDS011;23316;50.718;7.328;2023-04-10T05:43:39;13.75;;;8.93;;
37455;SDS011;23316;50.718;7.328;2023-04-10T05:46:10;14.50;;;9.35;;
37455;SDS011;23316;50.718;7.328;2023-04-10T05:48:37;13.63;;;8.57;;
37455;SDS011;23316;50.718;7.328;2023-04-10T05:51:06;14.43;;;8.80;;
37455;SDS011;23316;50.718;7.328;2023-04-10T05:53:35;14.40;;;9.10;;
37455;SDS011;23316;50.718;7.328;2023-04-10T05:58:50;14.80;;;9.07;;
37455;SDS011;23316;50.718;7.328;2023-04-10T06:04:06;12.55;;;8.52;;
37455;SDS011;23316;50.718;7.328;2023-04-10T06:06:34;12.65;;;8.60;;
37455;SDS011;23316;50.718;7.328;2023-04-10T06:09:02;11.93;;;8.18;;
37455;SDS011;23316;50.718;7.328;2023-04-10T06:11:30;14.63;;;9.25;;
37455;SDS011;23316;50.718;7.328;2023-04-10T06:13:57;13.02;;;9.18;;
37455;SDS011;23316;50.718;7.328;2023-04-10T06:16:24;12.60;;;8.15;;
37455;SDS011;23316;50.718;7.328;2023-04-10T06:18:52;15.23;;;9.30;;
37455;SDS011;23316;50.718;7.328;2023-04-10T06:21:21;13.55;;;9.00;;
37455;SDS011;23316;50.718;7.328;2023-04-10T06:23:48;13.77;;;8.88;;
37455;SDS011;23316;50.718;7.328;2023-04-10T06:26:17;14.05;;;8.95;;
37455;SDS011;23316;50.718;7.328;2023-04-10T06:28:45;12.60;;;8.68;;
37455;SDS011;23316;50.718;7.328;2023-04-10T06:31:12;51.55;;;22.08;;
37455;SDS011;23316;50.718;7.328;2023-04-10T06:33:39;20.65;;;11.48;;
37455;SDS011;23316;50.718;7.328;2023-04-10T06:36:07;14.45;;;9.23;;
37455;SDS011;23316;50.718;7.328;2023-04-10T06:38:35;13.40;;;8.80;;
37455;SDS011;23316;50.718;7.328;2023-04-10T06:41:03;12.82;;;8.00;;
37455;SDS011;23316;50.718;7.328;2023-04-10T06:43:32;14.40;;;8.73;;
37455;SDS011;23316;50.718;7.328;2023-04-10T06:46:00;17.05;;;8.88;;
37455;SDS011;23316;50.718;7.328;2023-04-10T06:48:32;12.02;;;8.73;;
37455;SDS011;23316;50.718;7.328;2023-04-10T06:51:01;14.73;;;9.23;;
37455;SDS011;23316;50.718;7.328;2023-04-10T06:53:29;14.48;;;8.55;;
37455;SDS011;23316;50.718;7.328;2023-04-10T06:55:57;12.93;;;8.93;;
37455;SDS011;23316;50.718;7.328;2023-04-10T06:58:24;12.73;;;9.07;;
37455;SDS011;23316;50.718;7.328;2023-04-10T07:00:52;14.10;;;8.13;;
37455;SDS011;23316;50.718;7.328;2023-04-10T07:03:22;12.90;;;8.55;;
37455;SDS011;23316;50.718;7.328;2023-04-10T07:05:51;13.75;;;8.93;;
37455;SDS011;23316;50.718;7.328;2023-04-10T07:08:18;12.98;;;8.70;;
37455;SDS011;23316;50.718;7.328;2023-04-10T07:10:46;11.30;;;8.15;;
37455;SDS011;23316;50.718;7.328;2023-04-10T07:13:13;14.23;;;8.80;;
37455;SDS011;23316;50.718;7.328;2023-04-10T07:15:40;13.48;;;8.13;;
37455;SDS011;23316;50.718;7.328;2023-04-10T07:18:09;15.00;;;8.45;;
37455;SDS011;23316;50.718;7.328;2023-04-10T07:20:36;13.20;;;8.43;;
37455;SDS011;23316;50.718;7.328;2023-04-10T07:23:03;12.65;;;8.48;;
37455;SDS011;23316;50.718;7.328;2023-04-10T07:25:34;12.23;;;8.23;;
37455;SDS011;23316;50.718;7.328;2023-04-10T07:28:01;11.65;;;8.32;;
37455;SDS011;23316;50.718;7.328;2023-04-10T07:30:28;15.35;;;8.48;;
37455;SDS011;23316;50.718;7.328;2023-04-10T07:32:56;28.20;;;14.23;;
37455;SDS011;23316;50.718;7.328;2023-04-10T07:35:24;27.08;;;12.02;;
37455;SDS011;23316;50.718;7.328;2023-04-10T07:37:51;24.88;;;13.77;;
37455;SDS011;23316;50.718;7.328;2023-04-10T07:40:19;23.40;;;12.88;;
37455;SDS011;23316;50.718;7.328;2023-04-10T07:42:46;14.13;;;7.45;;
37455;SDS011;23316;50.718;7.328;2023-04-10T07:45:13;14.15;;;9.32;;
37455;SDS011;23316;50.718;7.328;2023-04-10T07:47:41;12.75;;;7.32;;
37455;SDS011;23316;50.718;7.328;2023-04-10T07:50:08;12.15;;;8.10;;
37455;SDS011;23316;50.718;7.328;2023-04-10T07:52:37;12.85;;;7.80;;
37455;SDS011;23316;50.718;7.328;2023-04-10T07:55:05;9.95;;;6.90;;
37455;SDS011;23316;50.718;7.328;2023-04-10T07:57:32;11.45;;;7.10;;
37455;SDS011;23316;50.718;7.328;2023-04-10T07:59:59;13.10;;;7.32;;
37455;SDS011;23316;50.718;7.328;2023-04-10T08:02:27;10.05;;;7.40;;
37455;SDS011;23316;50.718;7.328;2023-04-10T08:04:54;11.68;;;7.55;;
37455;SDS011;23316;50.718;7.328;2023-04-10T08:07:21;16.48;;;7.20;;
37455;SDS011;23316;50.718;7.328;2023-04-10T08:09:50;11.18;;;6.70;;
37455;SDS011;23316;50.718;7.328;2023-04-10T08:12:17;11.52;;;6.57;;
37455;SDS011;23316;50.718;7.328;2023-04-10T08:14:44;9.30;;;6.18;;
37455;SDS011;23316;50.718;7.328;2023-04-10T08:17:11;10.40;;;6.05;;
37455;SDS011;23316;50.718;7.328;2023-04-10T08:19:40;9.57;;;6.30;;
37455;SDS011;23316;50.718;7.328;2023-04-10T08:22:07;8.60;;;6.07;;
37455;SDS011;23316;50.718;7.328;2023-04-10T08:24:37;9.23;;;5.93;;
37455;SDS011;23316;50.718;7.328;2023-04-10T08:27:06;10.57;;;6.60;;
37455;SDS011;23316;50.718;7.328;2023-04-10T08:29:35;11.52;;;7.00;;
37455;SDS011;23316;50.718;7.328;2023-04-10T08:32:02;9.57;;;6.55;;
37455;SDS011;23316;50.718;7.328;2023-04-10T08:34:29;8.13;;;5.82;;
37455;SDS011;23316;50.718;7.328;2023-04-10T08:36:57;9.52;;;6.30;;
37455;SDS011;23316;50.718;7.328;2023-04-10T08:39:26;9.70;;;6.20;;
37455;SDS011;23316;50.718;7.328;2023-04-10T08:41:53;8.10;;;5.88;;
37455;SDS011;23316;50.718;7.328;2023-04-10T08:44:22;9.80;;;5.95;;
37455;SDS011;23316;50.718;7.328;2023-04-10T08:46:49;8.65;;;6.28;;
37455;SDS011;23316;50.718;7.328;2023-04-10T08:49:21;9.00;;;5.97;;
37455;SDS011;23316;50.718;7.328;2023-04-10T08:51:54;9.75;;;6.18;;
37455;SDS011;23316;50.718;7.328;2023-04-10T08:54:24;11.80;;;6.18;;
37455;SDS011;23316;50.718;7.328;2023-04-10T08:56:54;10.95;;;6.50;;
37455;SDS011;23316;50.718;7.328;2023-04-10T08:59:24;9.02;;;5.85;;
37455;SDS011;23316;50.718;7.328;2023-04-10T09:01:57;9.18;;;5.93;;
37455;SDS011;23316;50.718;7.328;2023-04-10T09:04:25;9.02;;;6.22;;
37455;SDS011;23316;50.718;7.328;2023-04-10T09:06:52;10.63;;;6.15;;
37455;SDS011;23316;50.718;7.328;2023-04-10T09:09:19;9.77;;;6.45;;
37455;SDS011;23316;50.718;7.328;2023-04-10T09:11:56;8.38;;;6.07;;
37455;SDS011;23316;50.718;7.328;2023-04-10T09:14:30;12.50;;;6.22;;
37455;SDS011;23316;50.718;7.328;2023-04-10T09:17:12;9.07;;;5.65;;
37455;SDS011;23316;50.718;7.328;2023-04-10T09:19:44;9.13;;;5.68;;
37455;SDS011;23316;50.718;7.328;2023-04-10T09:22:15;8.52;;;5.80;;
37455;SDS011;23316;50.718;7.328;2023-04-10T09:24:43;9.75;;;5.55;;
37455;SDS011;23316;50.718;7.328;2023-04-10T09:27:26;9.35;;;5.43;;
37455;SDS011;23316;50.718;7.328;2023-04-10T09:29:59;7.93;;;5.07;;
37455;SDS011;23316;50.718;7.328;2023-04-10T09:32:37;7.15;;;5.18;;
37455;SDS011;23316;50.718;7.328;2023-04-10T09:35:06;8.27;;;5.07;;
37455;SDS011;23316;50.718;7.328;2023-04-10T09:37:34;7.30;;;5.25;;
37455;SDS011;23316;50.718;7.328;2023-04-10T09:40:02;6.60;;;4.95;;
37455;SDS011;23316;50.718;7.328;2023-04-10T09:42:32;9.40;;;4.97;;
37455;SDS011;23316;50.718;7.328;2023-04-10T09:45:03;7.18;;;4.70;;
37455;SDS011;23316;50.718;7.328;2023-04-10T09:47:31;6.30;;;4.82;;
37455;SDS011;23316;50.718;7.328;2023-04-10T09:49:59;8.35;;;5.35;;
37455;SDS011;23316;50.718;7.328;2023-04-10T09:52:28;6.85;;;4.15;;
37455;SDS011;23316;50.718;7.328;2023-04-10T09:54:57;7.47;;;4.93;;
37455;SDS011;23316;50.718;7.328;2023-04-10T09:57:29;6.65;;;4.45;;
37455;SDS011;23316;50.718;7.328;2023-04-10T09:59:59;7.07;;;4.78;;
37455;SDS011;23316;50.718;7.328;2023-04-10T10:02:29;7.28;;;4.88;;
37455;SDS011;23316;50.718;7.328;2023-04-10T10:05:01;6.32;;;4.65;;
37455;SDS011;23316;50.718;7.328;2023-04-10T10:07:30;6.32;;;4.57;;
37455;SDS011;23316;50.718;7.328;2023-04-10T10:09:58;5.53;;;3.95;;
37455;SDS011;23316;50.718;7.328;2023-04-10T10:12:28;4.90;;;3.47;;
37455;SDS011;23316;50.718;7.328;2023-04-10T10:15:04;5.38;;;3.70;;
37455;SDS011;23316;50.718;7.328;2023-04-10T10:17:40;4.80;;;3.70;;
37455;SDS011;23316;50.718;7.328;2023-04-10T10:20:12;6.15;;;4.07;;
37455;SDS011;23316;50.718;7.328;2023-04-10T10:22:42;4.78;;;3.33;;
37455;SDS011;23316;50.718;7.328;2023-04-10T10:25:12;5.03;;;3.95;;
37455;SDS011;23316;50.718;7.328;2023-04-10T10:27:40;4.82;;;3.85;;
37455;SDS011;23316;50.718;7.328;2023-04-10T10:30:08;4.78;;;3.70;;
37455;SDS011;23316;50.718;7.328;2023-04-10T10:32:40;6.38;;;3.58;;
37455;SDS011;23316;50.718;7.328;2023-04-10T10:35:08;5.05;;;3.22;;
37455;SDS011;23316;50.718;7.328;2023-04-10T10:37:36;4.93;;;3.45;;
37455;SDS011;23316;50.718;7.328;2023-04-10T10:40:09;4.90;;;3.75;;
37455;SDS011;23316;50.718;7.328;2023-04-10T10:42:44;4.78;;;3.42;;
37455;SDS011;23316;50.718;7.328;2023-04-10T10:45:17;4.38;;;3.30;;
37455;SDS011;23316;50.718;7.328;2023-04-10T10:47:50;4.00;;;3.08;;
37455;SDS011;23316;50.718;7.328;2023-04-10T10:50:20;4.68;;;3.30;;
37455;SDS011;23316;50.718;7.328;2023-04-10T10:52:48;6.28;;;3.33;;
37455;SDS011;23316;50.718;7.328;2023-04-10T10:55:27;5.63;;;3.58;;
37455;SDS011;23316;50.718;7.328;2023-04-10T10:57:57;4.47;;;3.38;;
37455;SDS011;23316;50.718;7.328;2023-04-10T11:03:34;4.90;;;2.65;;
37455;SDS011;23316;50.718;7.328;2023-04-10T11:06:02;4.35;;;3.17;;
37455;SDS011;23316;50.718;7.328;2023-04-10T11:08:35;4.47;;;3.50;;
37455;SDS011;23316;50.718;7.328;2023-04-10T11:11:07;6.28;;;3.60;;
37455;SDS011;23316;50.718;7.328;2023-04-10T11:13:36;4.32;;;3.30;;
37455;SDS011;23316;50.718;7.328;2023-04-10T11:16:05;3.28;;;2.67;;
37455;SDS011;23316;50.718;7.328;2023-04-10T11:21:33;8.20;;;2.83;;
37455;SDS011;23316;50.718;7.328;2023-04-10T11:24:02;4.53;;;3.28;;
37455;SDS011;23316;50.718;7.328;2023-04-10T11:26:37;4.40;;;3.10;;
37455;SDS011;23316;50.718;7.328;2023-04-10T11:29:06;4.68;;;3.03;;
37455;SDS011;23316;50.718;7.328;2023-04-10T11:32:00;3.28;;;2.53;;
37455;SDS011;23316;50.718;7.328;2023-04-10T11:34:30;4.38;;;3.20;;
37455;SDS011;23316;50.718;7.328;2023-04-10T11:36:58;3.72;;;2.72;;
37455;SDS011;23316;50.718;7.328;2023-04-10T11:39:27;3.80;;;2.90;;
37455;SDS011;23316;50.718;7.328;2023-04-10T11:41:56;4.50;;;2.63;;
37455;SDS011;23316;50.718;7.328;2023-04-10T11:44:27;3.33;;;2.42;;
37455;SDS011;23316;50.718;7.328;2023-04-10T11:46:56;3.47;;;2.70;;
37455;SDS011;23316;50.718;7.328;2023-04-10T11:49:24;3.15;;;2.55;;
37455;SDS011;23316;50.718;7.328;2023-04-10T11:51:54;6.95;;;2.50;;
37455;SDS011;23316;50.718;7.328;2023-04-10T11:54:22;4.13;;;3.03;;
37455;SDS011;23316;50.718;7.328;2023-04-10T11:56:55;4.05;;;2.97;;
37455;SDS011;23316;50.718;7.328;2023-04-10T11:59:24;3.88;;;2.53;;
37455;SDS011;23316;50.718;7.328;2023-04-10T12:01:52;11.15;;;2.90;;
37455;SDS011;23316;50.718;7.328;2023-04-10T12:04:20;6.90;;;3.70;;
37455;SDS011;23316;50.718;7.328;2023-04-10T12:06:49;3.85;;;2.90;;
37455;SDS011;23316;50.718;7.328;2023-04-10T12:09:19;3.72;;;2.97;;
37455;SDS011;23316;50.718;7.328;2023-04-10T12:11:48;3.53;;;2.85;;
37455;SDS011;23316;50.718;7.328;2023-04-10T12:14:17;4.03;;;3.20;;
37455;SDS011;23316;50.718;7.328;2023-04-10T12:16:45;4.50;;;3.53;;
37455;SDS011;23316;50.718;7.328;2023-04-10T12:19:13;5.63;;;3.30;;
37455;SDS011;23316;50.718;7.328;2023-04-10T12:21:41;5.05;;;3.50;;
37455;SDS011;23316;50.718;7.328;2023-04-10T12:24:09;6.63;;;3.40;;
37455;SDS011;23316;50.718;7.328;2023-04-10T12:26:38;4.82;;;3.50;;
37455;SDS011;23316;50.718;7.328;2023-04-10T12:29:14;5.10;;;3.33;;
37455;SDS011;23316;50.718;7.328;2023-04-10T12:31:41;4.25;;;3.00;;
37455;SDS011;23316;50.718;7.328;2023-04-10T12:34:08;6.75;;;3.03;;
37455;SDS011;23316;50.718;7.328;2023-04-10T12:36:36;7.03;;;3.30;;
37455;SDS011;23316;50.718;7.328;2023-04-10T12:39:03;4.20;;;3.20;;
37455;SDS011;23316;50.718;7.328;2023-04-10T12:41:48;4.00;;;3.03;;
37455;SDS011;23316;50.718;7.328;2023-04-10T12:44:15;6.13;;;3.30;;
37455;SDS011;23316;50.718;7.328;2023-04-10T12:46:43;5.32;;;3.67;;
37455;SDS011;23316;50.718;7.328;2023-04-10T12:49:11;4.55;;;3.08;;
37455;SDS011;23316;50.718;7.328;2023-04-10T12:51:40;4.68;;;3.58;;
37455;SDS011;23316;50.718;7.328;2023-04-10T12:54:24;5.05;;;3.83;;
37455;SDS011;23316;50.718;7.328;2023-04-10T12:56:54;9.02;;;3.60;;
37455;SDS011;23316;50.718;7.328;2023-04-10T12:59:22;4.32;;;3.30;;
37455;SDS011;23316;50.718;7.328;2023-04-10T13:01:49;4.60;;;3.53;;
37455;SDS011;23316;50.718;7.328;2023-04-10T13:04:16;4.32;;;3.40;;
37455;SDS011;23316;50.718;7.328;2023-04-10T13:06:44;3.50;;;2.70;;
37455;SDS011;23316;50.718;7.328;2023-04-10T13:09:12;4.03;;;3.13;;
37455;SDS011;23316;50.718;7.328;2023-04-10T13:11:41;4.22;;;3.13;;
37455;SDS011;23316;50.718;7.328;2023-04-10T13:14:09;3.70;;;2.97;;
37455;SDS011;23316;50.718;7.328;2023-04-10T13:16:37;4.20;;;3.22;;
37455;SDS011;23316;50.718;7.328;2023-04-10T13:19:04;4.85;;;2.78;;
37455;SDS011;23316;50.718;7.328;2023-04-10T13:21:31;5.47;;;3.10;;
37455;SDS011;23316;50.718;7.328;2023-04-10T13:23:58;3.80;;;2.95;;
37455;SDS011;23316;50.718;7.328;2023-04-10T13:26:25;3.83;;;2.65;;
37455;SDS011;23316;50.718;7.328;2023-04-10T13:28:53;4.00;;;2.97;;
37455;SDS011;23316;50.718;7.328;2023-04-10T13:31:21;4.07;;;2.65;;
37455;SDS011;23316;50.718;7.328;2023-04-10T13:33:48;5.80;;;2.80;;
37455;SDS011;23316;50.718;7.328;2023-04-10T13:36:15;3.40;;;2.70;;
37455;SDS011;23316;50.718;7.328;2023-04-10T13:38:43;3.20;;;2.60;;
37455;SDS011;23316;50.718;7.328;2023-04-10T13:41:10;3.58;;;2.72;;
37455;SDS011;23316;50.718;7.328;2023-04-10T13:43:37;3.95;;;2.85;;
37455;SDS011;23316;50.718;7.328;2023-04-10T13:46:04;3.75;;;2.72;;
37455;SDS011;23316;50.718;7.328;2023-04-10T13:48:33;3.33;;;2.55;;
37455;SDS011;23316;50.718;7.328;2023-04-10T13:51:05;3.17;;;2.53;;
37455;SDS011;23316;50.718;7.328;2023-04-10T13:53:32;6.18;;;2.72;;
37455;SDS011;23316;50.718;7.328;2023-04-10T13:56:00;3.88;;;2.92;;
37455;SDS011;23316;50.718;7.328;2023-04-10T13:58:27;3.53;;;2.28;;
37455;SDS011;23316;50.718;7.328;2023-04-10T14:00:56;3.60;;;2.50;;
37455;SDS011;23316;50.718;7.328;2023-04-10T14:03:23;2.70;;;2.30;;
37455;SDS011;23316;50.718;7.328;2023-04-10T14:05:52;2.33;;;2.13;;
37455;SDS011;23316;50.718;7.328;2023-04-10T14:08:19;2.13;;;1.90;;
37455;SDS011;23316;50.718;7.328;2023-04-10T14:10:46;3.50;;;2.38;;
37455;SDS011;23316;50.718;7.328;2023-04-10T14:13:15;4.80;;;2.50;;
37455;SDS011;23316;50.718;7.328;2023-04-10T14:15:42;6.00;;;2.67;;
37455;SDS011;23316;50.718;7.328;2023-04-10T14:18:09;3.80;;;2.13;;
37455;SDS011;23316;50.718;7.328;2023-04-10T14:20:37;2.22;;;1.90;;
37455;SDS011;23316;50.718;7.328;2023-04-10T14:23:08;2.50;;;1.92;;
37455;SDS011;23316;50.718;7.328;2023-04-10T14:25:41;2.50;;;1.90;;
37455;SDS011;23316;50.718;7.328;2023-04-10T14:28:08;3.40;;;2.03;;
37455;SDS011;23316;50.718;7.328;2023-04-10T14:30:41;1.67;;;1.55;;
37455;SDS011;23316;50.718;7.328;2023-04-10T14:33:09;3.28;;;1.58;;
37455;SDS011;23316;50.718;7.328;2023-04-10T14:35:37;2.85;;;2.08;;
37455;SDS011;23316;50.718;7.328;2023-04-10T14:38:04;2.50;;;1.80;;
37455;SDS011;23316;50.718;7.328;2023-04-10T14:40:33;2.15;;;1.75;;
37455;SDS011;23316;50.718;7.328;2023-04-10T14:43:01;5.18;;;1.70;;
37455;SDS011;23316;50.718;7.328;2023-04-10T14:45:28;5.05;;;1.95;;
37455;SDS011;23316;50.718;7.328;2023-04-10T14:47:57;6.03;;;2.00;;
37455;SDS011;23316;50.718;7.328;2023-04-10T14:50:24;2.28;;;1.65;;
37455;SDS011;23316;50.718;7.328;2023-04-10T14:52:51;2.65;;;1.60;;
37455;SDS011;23316;50.718;7.328;2023-04-10T14:55:19;2.10;;;1.80;;
37455;SDS011;23316;50.718;7.328;2023-04-10T14:57:47;2.58;;;1.80;;
37455;SDS011;23316;50.718;7.328;2023-04-10T15:00:15;3.22;;;1.48;;
37455;SDS011;23316;50.718;7.328;2023-04-10T15:02:43;1.92;;;1.40;;
37455;SDS011;23316;50.718;7.328;2023-04-10T15:05:10;1.50;;;1.40;;
37455;SDS011;23316;50.718;7.328;2023-04-10T15:07:37;1.70;;;1.25;;